createdAt,value
2022-11-13T00:00:59.810Z,99.90
2022-11-13T00:03:46.759Z,99.90
2022-11-13T00:06:34.427Z,99.90
2022-11-13T00:09:21.154Z,99.90
2022-11-13T00:12:08.409Z,99.90
2022-11-13T00:14:56.754Z,99.90
2022-11-13T00:17:46.032Z,99.90
2022-11-13T00:20:32.738Z,99.90
2022-11-13T00:23:19.579Z,99.90
2022-11-13T00:26:09.991Z,99.90
2022-11-13T00:28:58.745Z,99.90
2022-11-13T00:31:47.253Z,99.90
2022-11-13T00:34:47.026Z,99.90
2022-11-13T00:37:34.243Z,99.90
2022-11-13T00:40:20.955Z,99.90
2022-11-13T00:43:08.005Z,99.90
2022-11-13T00:45:55.253Z,99.90
2022-11-13T00:48:43.719Z,99.90
2022-11-13T00:51:30.855Z,99.90
2022-11-13T00:54:17.616Z,99.90
2022-11-13T00:57:04.563Z,99.90
2022-11-13T00:59:51.248Z,99.90
2022-11-13T01:02:38.154Z,99.90
2022-11-13T01:05:26.987Z,99.90
2022-11-13T01:08:15.161Z,99.90
2022-11-13T01:11:01.967Z,99.90
2022-11-13T01:13:50.469Z,99.90
2022-11-13T01:16:38.986Z,99.90
2022-11-13T01:19:25.764Z,99.90
2022-11-13T01:22:13.834Z,99.90
2022-11-13T01:25:00.935Z,99.90
2022-11-13T01:27:47.982Z,99.90
2022-11-13T01:30:34.926Z,99.90
2022-11-13T01:33:21.867Z,99.90
2022-11-13T01:36:12.215Z,99.90
2022-11-13T01:39:00.760Z,99.90
2022-11-13T01:41:47.592Z,99.90
2022-11-13T01:44:50.624Z,99.90
2022-11-13T01:47:37.879Z,99.90
2022-11-13T01:50:24.990Z,99.90
2022-11-13T01:53:12.935Z,99.90
2022-11-13T01:56:01.220Z,99.90
2022-11-13T01:58:53.198Z,99.90
2022-11-13T02:01:40.637Z,99.90
2022-11-13T02:04:29.750Z,99.90
2022-11-13T02:07:18.972Z,99.90
2022-11-13T02:10:07.518Z,99.90
2022-11-13T02:12:56.396Z,99.90
2022-11-13T02:15:45.250Z,99.90
2022-11-13T02:18:33.581Z,99.90
2022-11-13T02:21:31.251Z,99.90
2022-11-13T02:24:27.150Z,99.90
2022-11-13T02:27:25.101Z,99.90
2022-11-13T02:30:16.419Z,99.90
2022-11-13T02:33:03.816Z,99.90
2022-11-13T02:35:50.754Z,99.90
2022-11-13T02:38:38.980Z,99.90
2022-11-13T02:41:28.809Z,99.90
2022-11-13T02:44:16.212Z,99.90
2022-11-13T02:47:03.145Z,99.90
2022-11-13T02:49:50.012Z,99.90
2022-11-13T02:52:38.975Z,99.90
2022-11-13T02:55:27.146Z,99.90
2022-11-13T02:58:15.981Z,99.90
2022-11-13T03:01:03.747Z,99.90
2022-11-13T03:03:58.636Z,99.90
2022-11-13T03:06:46.199Z,99.90
2022-11-13T03:09:33.397Z,99.90
2022-11-13T03:12:20.450Z,99.90
2022-11-13T03:15:10.867Z,99.90
2022-11-13T03:17:58.270Z,99.90
2022-11-13T03:20:45.727Z,99.90
2022-11-13T03:23:32.954Z,99.90
2022-11-13T03:26:19.811Z,99.90
2022-11-13T03:29:06.575Z,99.90
2022-11-13T03:31:54.636Z,99.90
2022-11-13T03:34:41.683Z,99.90
2022-11-13T03:37:28.762Z,99.90
2022-11-13T03:40:15.428Z,99.90
2022-11-13T03:43:02.221Z,99.90
2022-11-13T03:45:49.523Z,99.90
2022-11-13T03:48:38.192Z,99.90
2022-11-13T03:51:25.057Z,99.90
2022-11-13T03:54:12.181Z,99.90
2022-11-13T03:56:59.523Z,99.90
2022-11-13T03:59:46.384Z,99.90
2022-11-13T04:02:33.528Z,99.90
2022-11-13T04:05:23.048Z,99.90
2022-11-13T04:08:10.325Z,99.90
2022-11-13T04:11:06.166Z,99.90
2022-11-13T04:13:52.909Z,99.90
2022-11-13T04:16:39.602Z,99.90
2022-11-13T04:19:26.487Z,99.90
2022-11-13T04:22:14.461Z,99.90
2022-11-13T04:25:01.578Z,99.90
2022-11-13T04:27:50.309Z,99.90
2022-11-13T04:30:37.439Z,99.90
2022-11-13T04:33:24.159Z,99.90
2022-11-13T04:36:11.336Z,99.90
2022-11-13T04:38:59.914Z,99.90
2022-11-13T04:42:03.996Z,99.90
2022-11-13T04:44:50.774Z,99.90
2022-11-13T04:47:37.751Z,99.90
2022-11-13T04:50:25.274Z,99.90
2022-11-13T04:53:12.160Z,99.90
2022-11-13T04:56:00.759Z,99.90
2022-11-13T04:58:48.108Z,99.90
2022-11-13T05:01:36.640Z,99.90
2022-11-13T05:04:23.874Z,99.90
2022-11-13T05:07:11.076Z,99.90
2022-11-13T05:09:58.299Z,99.90
2022-11-13T05:12:46.570Z,99.90
2022-11-13T05:15:33.296Z,99.90
2022-11-13T05:18:20.177Z,99.90
2022-11-13T05:21:08.161Z,99.90
2022-11-13T05:23:55.215Z,99.90
2022-11-13T05:26:41.962Z,99.90
2022-11-13T05:29:30.282Z,99.90
2022-11-13T05:32:17.004Z,99.90
2022-11-13T05:35:04.188Z,99.90
2022-11-13T05:37:51.383Z,99.90
2022-11-13T05:40:38.526Z,99.90
2022-11-13T05:43:25.681Z,99.90
2022-11-13T05:46:18.444Z,99.90
2022-11-13T05:49:05.890Z,99.90
2022-11-13T05:51:55.083Z,99.90
2022-11-13T05:54:42.072Z,99.90
2022-11-13T05:57:28.783Z,99.90
2022-11-13T06:00:16.949Z,99.90
2022-11-13T06:03:05.337Z,99.90
2022-11-13T06:05:52.121Z,99.90
2022-11-13T06:08:39.653Z,99.90
2022-11-13T06:11:28.086Z,99.90
2022-11-13T06:14:15.266Z,99.90
2022-11-13T06:17:02.263Z,99.90
2022-11-13T06:19:50.542Z,99.90
2022-11-13T06:22:37.772Z,99.90
2022-11-13T06:25:24.819Z,99.90
2022-11-13T06:28:11.576Z,99.90
2022-11-13T06:31:03.217Z,99.90
2022-11-13T06:33:50.846Z,99.90
2022-11-13T06:36:40.288Z,99.90
2022-11-13T06:39:27.843Z,99.90
2022-11-13T06:42:15.815Z,99.90
2022-11-13T06:45:03.667Z,99.90
2022-11-13T06:47:51.654Z,99.90
2022-11-13T06:50:42.362Z,99.90
2022-11-13T06:53:33.692Z,99.90
2022-11-13T06:56:22.535Z,99.90
2022-11-13T06:59:11.472Z,99.90
2022-11-13T07:01:58.985Z,99.90
2022-11-13T07:04:46.507Z,99.90
2022-11-13T07:07:34.591Z,99.90
2022-11-13T07:10:23.743Z,99.90
2022-11-13T07:13:11.621Z,99.90
2022-11-13T07:16:15.957Z,99.90
2022-11-13T07:19:05.784Z,99.90
2022-11-13T07:21:53.097Z,99.90
2022-11-13T07:24:40.942Z,99.90
2022-11-13T07:27:36.370Z,99.90
2022-11-13T07:30:25.156Z,99.90
2022-11-13T07:33:14.256Z,99.90
2022-11-13T07:36:02.382Z,99.90
2022-11-13T07:38:50.245Z,99.90
2022-11-13T07:41:38.509Z,99.90
2022-11-13T07:44:52.920Z,99.90
2022-11-13T07:47:38.541Z,99.90
2022-11-13T07:50:29.494Z,99.90
2022-11-13T07:53:18.855Z,99.90
2022-11-13T07:56:07.286Z,99.90
2022-11-13T07:58:57.342Z,99.90
2022-11-13T08:01:48.479Z,99.90
2022-11-13T08:04:36.586Z,99.90
2022-11-13T08:07:27.371Z,99.90
2022-11-13T08:10:15.979Z,99.90
2022-11-13T08:13:05.152Z,99.90
2022-11-13T08:15:52.779Z,99.90
2022-11-13T08:18:41.355Z,99.90
2022-11-13T08:21:29.619Z,99.90
2022-11-13T08:24:16.500Z,99.90
2022-11-13T08:27:03.264Z,99.90
2022-11-13T08:29:50.491Z,99.90
2022-11-13T08:32:37.445Z,99.90
2022-11-13T08:35:29.375Z,99.90
2022-11-13T08:38:16.828Z,99.90
2022-11-13T08:41:08.920Z,99.90
2022-11-13T08:43:56.852Z,99.90
2022-11-13T08:46:43.988Z,99.90
2022-11-13T08:49:30.876Z,99.90
2022-11-13T08:52:19.303Z,99.90
2022-11-13T08:55:06.908Z,99.90
2022-11-13T08:57:53.861Z,99.90
2022-11-13T09:00:40.858Z,99.90
2022-11-13T09:03:27.708Z,99.90
2022-11-13T09:06:14.483Z,99.90
2022-11-13T09:09:03.306Z,99.90
2022-11-13T09:11:50.870Z,99.90
2022-11-13T09:14:38.112Z,99.90
2022-11-13T09:17:25.183Z,99.90
2022-11-13T09:20:14.019Z,99.00
2022-11-13T09:23:02.849Z,97.70
2022-11-13T09:25:51.337Z,97.30
2022-11-13T09:28:38.370Z,96.20
2022-11-13T09:31:25.733Z,94.00
2022-11-13T09:34:12.542Z,93.00
2022-11-13T09:36:59.411Z,91.40
2022-11-13T09:39:46.554Z,91.30
2022-11-13T09:42:38.162Z,90.50
2022-11-13T09:45:25.388Z,88.20
2022-11-13T09:48:22.988Z,86.70
2022-11-13T09:51:14.769Z,83.90
2022-11-13T09:54:06.226Z,79.80
2022-11-13T09:56:58.766Z,75.60
2022-11-13T09:59:53.126Z,71.80
2022-11-13T10:02:54.380Z,72.60
2022-11-13T10:05:47.038Z,73.80
2022-11-13T10:08:47.904Z,73.10
2022-11-13T10:11:40.375Z,75.00
2022-11-13T10:14:32.643Z,72.50
2022-11-13T10:17:28.438Z,70.10
2022-11-13T10:20:18.923Z,75.10
2022-11-13T10:23:13.585Z,74.90
2022-11-13T10:26:17.397Z,75.80
2022-11-13T10:29:12.049Z,71.40
2022-11-13T10:31:59.312Z,76.40
2022-11-13T10:34:53.939Z,76.50
2022-11-13T10:37:53.466Z,72.50
2022-11-13T10:40:42.053Z,72.60
2022-11-13T10:43:29.381Z,74.50
2022-11-13T10:46:22.001Z,74.00
2022-11-13T10:49:14.589Z,73.00
2022-11-13T10:52:08.454Z,73.60
2022-11-13T10:55:15.494Z,72.10
2022-11-13T10:58:03.890Z,71.90
2022-11-13T11:00:50.940Z,71.30
2022-11-13T11:03:37.539Z,71.10
2022-11-13T11:07:04.478Z,69.30
2022-11-13T11:09:47.621Z,69.00
2022-11-13T11:12:34.717Z,68.10
2022-11-13T11:15:26.616Z,67.90
2022-11-13T11:18:23.551Z,66.60
2022-11-13T11:21:14.997Z,68.20
2022-11-13T11:24:07.823Z,67.60
2022-11-13T11:27:04.298Z,67.80
2022-11-13T11:29:58.811Z,67.90
2022-11-13T11:32:52.355Z,69.50
2022-11-13T11:35:44.416Z,67.40
2022-11-13T11:38:37.461Z,67.80
2022-11-13T11:41:29.984Z,65.50
2022-11-13T11:44:26.117Z,65.60
2022-11-13T11:47:16.184Z,67.00
2022-11-13T11:50:03.616Z,68.00
2022-11-13T11:53:01.080Z,68.80
2022-11-13T11:56:09.007Z,69.10
2022-11-13T11:59:27.202Z,68.60
2022-11-13T12:02:47.495Z,68.40
2022-11-13T12:05:46.240Z,69.00
2022-11-13T12:08:40.705Z,70.00
2022-11-13T12:11:31.591Z,71.00
2022-11-13T12:14:27.504Z,73.00
2022-11-13T12:17:31.346Z,73.00
2022-11-13T12:20:27.592Z,73.20
2022-11-13T12:23:28.657Z,72.10
2022-11-13T12:26:24.297Z,73.30
2022-11-13T12:29:26.381Z,72.90
2022-11-13T12:32:29.577Z,75.20
2022-11-13T12:35:19.476Z,75.80
2022-11-13T12:38:17.417Z,75.80
2022-11-13T12:41:12.481Z,76.60
2022-11-13T12:44:20.879Z,76.70
2022-11-13T12:47:09.655Z,75.90
2022-11-13T12:50:03.285Z,77.80
2022-11-13T12:53:11.416Z,77.00
2022-11-13T12:56:00.539Z,76.70
2022-11-13T12:59:23.703Z,77.10
2022-11-13T13:02:22.767Z,77.60
2022-11-13T13:05:24.883Z,77.30
2022-11-13T13:08:47.735Z,77.70
2022-11-13T13:11:45.043Z,75.80
2022-11-13T13:14:57.524Z,75.90
2022-11-13T13:17:44.449Z,78.10
2022-11-13T13:20:36.982Z,78.20
2022-11-13T13:23:29.101Z,78.70
2022-11-13T13:26:18.966Z,79.80
2022-11-13T13:29:31.872Z,76.20
2022-11-13T13:32:24.520Z,75.60
2022-11-13T13:35:16.504Z,78.60
2022-11-13T13:38:14.575Z,78.60
2022-11-13T13:41:17.055Z,79.90
2022-11-13T13:44:27.253Z,81.50
2022-11-13T13:47:23.627Z,81.50
2022-11-13T13:50:16.273Z,81.50
2022-11-13T13:53:04.693Z,82.50
2022-11-13T13:55:53.717Z,82.10
2022-11-13T13:58:41.846Z,81.80
2022-11-13T14:01:30.716Z,81.30
2022-11-13T14:04:20.677Z,81.80
2022-11-13T14:07:21.550Z,81.80
2022-11-13T14:10:17.182Z,82.90
2022-11-13T14:13:04.940Z,82.50
2022-11-13T14:16:02.305Z,81.70
2022-11-13T14:18:49.015Z,82.30
2022-11-13T14:21:35.779Z,82.80
2022-11-13T14:24:25.765Z,82.90
2022-11-13T14:27:19.472Z,83.00
2022-11-13T14:30:11.013Z,83.30
2022-11-13T14:33:10.127Z,84.40
2022-11-13T14:35:59.412Z,85.40
2022-11-13T14:38:52.211Z,86.20
2022-11-13T14:41:42.384Z,86.60
2022-11-13T14:44:34.448Z,87.60
2022-11-13T14:47:24.450Z,88.20
2022-11-13T14:50:22.188Z,86.50
2022-11-13T14:53:10.531Z,83.40
2022-11-13T14:55:59.270Z,81.90
2022-11-13T14:58:47.853Z,80.40
2022-11-13T15:01:36.374Z,82.40
2022-11-13T15:04:23.487Z,82.90
2022-11-13T15:07:22.995Z,83.70
2022-11-13T15:10:14.896Z,87.10
2022-11-13T15:13:01.935Z,88.10
2022-11-13T15:15:48.611Z,89.60
2022-11-13T15:18:36.736Z,90.70
2022-11-13T15:21:24.590Z,91.30
2022-11-13T15:24:12.149Z,91.60
2022-11-13T15:26:59.239Z,92.00
2022-11-13T15:29:46.407Z,92.30
2022-11-13T15:32:33.577Z,92.60
2022-11-13T15:35:22.965Z,92.90
2022-11-13T15:38:09.983Z,93.30
2022-11-13T15:40:56.862Z,93.60
2022-11-13T15:43:46.226Z,94.10
2022-11-13T15:46:33.106Z,94.60
2022-11-13T15:49:19.877Z,94.70
2022-11-13T15:52:08.672Z,94.90
2022-11-13T15:54:55.648Z,95.20
2022-11-13T15:57:43.203Z,95.40
2022-11-13T16:00:30.648Z,96.20
2022-11-13T16:03:19.213Z,96.50
2022-11-13T16:06:06.537Z,97.10
2022-11-13T16:08:54.919Z,97.20
2022-11-13T16:11:43.622Z,97.50
2022-11-13T16:14:30.725Z,97.70
2022-11-13T16:17:20.376Z,97.80
2022-11-13T16:20:11.329Z,97.80
2022-11-13T16:22:58.198Z,98.20
2022-11-13T16:25:47.524Z,98.30
2022-11-13T16:28:42.063Z,98.40
2022-11-13T16:31:41.636Z,98.30
2022-11-13T16:34:28.437Z,98.30
2022-11-13T16:37:17.082Z,98.30
2022-11-13T16:40:03.954Z,98.30
2022-11-13T16:42:52.729Z,98.60
2022-11-13T16:45:39.857Z,98.70
2022-11-13T16:48:26.855Z,99.30
2022-11-13T16:51:13.568Z,99.50
2022-11-13T16:54:00.286Z,99.90
2022-11-13T16:56:47.021Z,99.90
2022-11-13T16:59:35.361Z,99.90
2022-11-13T17:02:22.025Z,99.90
2022-11-13T17:05:11.858Z,99.90
2022-11-13T17:08:00.204Z,99.90
2022-11-13T17:10:46.929Z,99.90
2022-11-13T17:13:33.773Z,99.90
2022-11-13T17:16:22.284Z,99.90
2022-11-13T17:19:13.111Z,99.90
2022-11-13T17:21:59.992Z,99.90
2022-11-13T17:24:46.762Z,99.90
2022-11-13T17:27:33.595Z,99.90
2022-11-13T17:30:20.630Z,99.90
2022-11-13T17:33:09.170Z,99.90
2022-11-13T17:35:56.343Z,99.90
2022-11-13T17:38:43.447Z,99.90
2022-11-13T17:41:30.143Z,99.90
2022-11-13T17:44:16.750Z,99.90
2022-11-13T17:47:03.510Z,99.90
2022-11-13T17:49:51.881Z,99.90
2022-11-13T17:52:38.812Z,99.90
2022-11-13T17:55:25.823Z,99.90
2022-11-13T17:58:12.559Z,99.90
2022-11-13T18:01:06.025Z,99.90
2022-11-13T18:03:56.135Z,99.90
2022-11-13T18:06:44.776Z,99.90
2022-11-13T18:09:31.721Z,99.90
2022-11-13T18:12:18.504Z,99.90
2022-11-13T18:15:05.882Z,99.90
2022-11-13T18:17:52.872Z,99.90
2022-11-13T18:20:41.492Z,99.90
2022-11-13T18:23:30.093Z,99.90
2022-11-13T18:26:19.858Z,99.90
2022-11-13T18:29:06.705Z,99.90
2022-11-13T18:31:53.258Z,99.90
2022-11-13T18:34:40.063Z,99.90
2022-11-13T18:37:27.005Z,99.90
2022-11-13T18:40:15.259Z,99.90
2022-11-13T18:43:01.966Z,99.90
2022-11-13T18:45:57.507Z,99.90
2022-11-13T18:48:45.824Z,99.90
2022-11-13T18:51:35.563Z,99.90
2022-11-13T18:54:22.765Z,99.90
2022-11-13T18:57:10.962Z,99.90
2022-11-13T18:59:57.805Z,99.90
2022-11-13T19:02:44.484Z,99.90
2022-11-13T19:05:31.134Z,99.90
2022-11-13T19:08:18.104Z,99.90
2022-11-13T19:11:07.201Z,99.90
2022-11-13T19:13:55.564Z,99.90
2022-11-13T19:16:42.425Z,99.90
2022-11-13T19:19:29.331Z,99.90
2022-11-13T19:22:17.330Z,99.90
2022-11-13T19:25:04.711Z,99.90
2022-11-13T19:27:54.069Z,99.90
2022-11-13T19:30:47.524Z,99.90
2022-11-13T19:33:34.225Z,99.90
2022-11-13T19:36:21.663Z,99.90
2022-11-13T19:39:09.771Z,99.90
2022-11-13T19:41:56.770Z,99.90
2022-11-13T19:44:43.617Z,99.90
2022-11-13T19:47:31.791Z,99.90
2022-11-13T19:50:18.676Z,99.90
2022-11-13T19:53:05.663Z,99.90
2022-11-13T19:55:56.193Z,99.90
2022-11-13T19:58:44.874Z,99.90
2022-11-13T20:01:32.929Z,99.90
2022-11-13T20:04:21.263Z,99.90
2022-11-13T20:07:08.116Z,99.90
2022-11-13T20:09:55.208Z,99.90
2022-11-13T20:12:41.922Z,99.90
2022-11-13T20:15:28.718Z,99.90
2022-11-13T20:18:15.641Z,99.90
2022-11-13T20:21:04.347Z,99.90
2022-11-13T20:23:51.349Z,99.90
2022-11-13T20:26:38.336Z,99.90
2022-11-13T20:29:25.050Z,99.90
2022-11-13T20:32:11.630Z,99.90
2022-11-13T20:34:58.351Z,99.90
2022-11-13T20:37:46.506Z,99.90
2022-11-13T20:40:33.328Z,99.90
2022-11-13T20:43:20.136Z,99.90
2022-11-13T20:46:08.835Z,99.90
2022-11-13T20:48:55.915Z,99.90
2022-11-13T20:51:43.480Z,99.90
2022-11-13T20:54:31.853Z,99.90
2022-11-13T20:57:21.298Z,99.90
2022-11-13T21:00:10.075Z,99.90
2022-11-13T21:02:56.722Z,99.90
2022-11-13T21:05:43.353Z,99.90
2022-11-13T21:08:30.626Z,99.90
2022-11-13T21:11:22.014Z,99.90
2022-11-13T21:14:10.494Z,99.90
2022-11-13T21:16:57.178Z,99.90
2022-11-13T21:19:43.845Z,99.90
2022-11-13T21:22:30.524Z,99.90
2022-11-13T21:25:17.753Z,99.90
2022-11-13T21:28:06.530Z,99.90
2022-11-13T21:30:53.697Z,99.90
2022-11-13T21:33:41.498Z,99.90
2022-11-13T21:36:29.537Z,99.90
2022-11-13T21:39:16.816Z,99.90
2022-11-13T21:42:03.677Z,99.90
2022-11-13T21:44:51.737Z,99.90
2022-11-13T21:47:38.521Z,99.90
2022-11-13T21:50:25.664Z,99.90
2022-11-13T21:53:13.299Z,99.90
2022-11-13T21:55:59.932Z,99.90
2022-11-13T21:58:46.876Z,99.90
2022-11-13T22:01:38.499Z,99.90
2022-11-13T22:04:25.557Z,99.90
2022-11-13T22:07:12.217Z,99.90
2022-11-13T22:10:00.146Z,99.90
2022-11-13T22:12:48.839Z,99.90
2022-11-13T22:15:38.833Z,99.90
2022-11-13T22:18:27.585Z,99.90
2022-11-13T22:21:16.137Z,99.90
2022-11-13T22:24:03.485Z,99.90
2022-11-13T22:26:50.265Z,99.90
2022-11-13T22:29:37.039Z,99.90
2022-11-13T22:32:23.706Z,99.90
2022-11-13T22:35:12.130Z,99.90
2022-11-13T22:37:58.963Z,99.90
2022-11-13T22:40:46.130Z,99.90
2022-11-13T22:43:34.547Z,99.90
2022-11-13T22:46:23.831Z,99.90
2022-11-13T22:49:13.494Z,99.90
2022-11-13T22:52:01.641Z,99.90
2022-11-13T22:54:48.803Z,99.90
2022-11-13T22:57:35.896Z,99.90
2022-11-13T23:00:22.493Z,99.90
2022-11-13T23:03:09.896Z,99.90
2022-11-13T23:05:56.777Z,99.90
2022-11-13T23:08:45.318Z,99.90
2022-11-13T23:11:33.545Z,99.90
2022-11-13T23:14:20.534Z,99.90
2022-11-13T23:17:07.329Z,99.90
2022-11-13T23:19:54.062Z,99.90
2022-11-13T23:22:40.808Z,99.90
2022-11-13T23:25:28.928Z,99.90
2022-11-13T23:28:15.703Z,99.90
2022-11-13T23:31:02.345Z,99.90
2022-11-13T23:33:49.094Z,99.90
2022-11-13T23:36:36.062Z,99.90
2022-11-13T23:39:22.774Z,99.90
2022-11-13T23:42:10.997Z,99.90
2022-11-13T23:44:58.023Z,99.90
2022-11-13T23:47:44.764Z,99.90
2022-11-13T23:50:31.783Z,99.90
2022-11-13T23:53:19.017Z,99.90
2022-11-13T23:56:06.481Z,99.90
2022-11-13T23:58:54.872Z,99.90
